Time;durP1;ratioP1;P1;durP2;ratioP2;P2;SDS_P1;SDS_P2;PMS_P1;PMS_P2;Temp;Humidity;BMP_temperature;BMP_pressure;BME280_temperature;BME280_humidity;BME280_pressure;Samples;Min_cycle;Max_cycle;Signal;HPM_P1;HPM_P2
2022/01/08 00:01:09;;;;;;;;;;;;;;;;;;5094411;28;19920;-86
2022/01/08 00:03:35;;;;;;;;;;;;;;;;;;5094036;28;20360;-81
2022/01/08 00:06:00;;;;;;;;;;;;;;;;;;5075856;28;20054;-83
2022/01/08 00:08:25;;;;;;;;;;;;;;;;;;5093982;28;20291;-83
2022/01/08 00:10:53;;;;;;;;;;;;;;;;;;5094193;28;19923;-83
2022/01/08 00:13:18;;;;;;;;;;;;;;;;;;5094127;28;19916;-82
2022/01/08 00:15:44;;;;;;;;;;;;;;;;;;5093550;28;20447;-82
2022/01/08 00:18:09;;;;;;;;;;;;;;;;;;5093602;28;19916;-83
2022/01/08 00:20:35;;;;;;;;;;;;;;;;;;5094058;28;20010;-86
2022/01/08 00:23:01;;;;;;;;;;;;;;;;;;5093712;28;19962;-85
2022/01/08 00:25:26;;;;;;;;;;;;;;;;;;5092856;28;20299;-84
2022/01/08 00:27:52;;;;;;;;;;;;;;;;;;5092113;28;19916;-83
2022/01/08 00:30:17;;;;;;;;;;;;;;;;;;5092686;28;19938;-83
2022/01/08 00:32:43;;;;;;;;;;;;;;;;;;5089472;28;19927;-81
2022/01/08 00:35:09;;;;;;;;;;;;;;;;;;5092338;28;19916;-82
2022/01/08 00:37:37;;;;;;;;;;;;;;;;;;5091944;28;19920;-84
2022/01/08 00:40:04;;;;;;;;;;;;;;;;;;5092224;28;19916;-82
2022/01/08 00:42:29;;;;;;;;;;;;;;;;;;5089356;28;19924;-87
2022/01/08 00:44:55;;;;;;;;;;;;;;;;;;5091226;28;20057;-82
2022/01/08 00:47:20;;;;;;;;;;;;;;;;;;5093074;28;19916;-83
2022/01/08 00:49:46;;;;;;;;;;;;;;;;;;5081208;28;19920;-81
2022/01/08 00:52:11;;;;;;;;;;;;;;;;;;5055553;28;20018;-80
2022/01/08 00:54:38;;;;;;;;;;;;;;;;;;5073044;28;20403;-84
2022/01/08 00:57:04;;;;;;;;;;;;;;;;;;5073290;28;19916;-85
2022/01/08 00:59:29;;;;;;;;;;;;;;;;;;5072784;28;19927;-86
2022/01/08 01:01:55;;;;;;;;;;;;;;;;;;5073282;28;19925;-83
2022/01/08 01:04:22;;;;;;;;;;;;;;;;;;5072751;28;20120;-84
2022/01/08 01:06:48;;;;;;;;;;;;;;;;;;5073151;28;20414;-82
2022/01/08 01:09:14;;;;;;;;;;;;;;;;;;5073181;28;20299;-86
2022/01/08 01:11:40;;;;;;;;;;;;;;;;;;5072987;28;19917;-85
2022/01/08 01:14:05;;;;;;;;;;;;;;;;;;5073220;28;20395;-87
2022/01/08 01:16:30;;;;;;;;;;;;;;;;;;5073268;28;19923;-86
2022/01/08 01:18:58;;;;;;;;;;;;;;;;;;5072899;28;19995;-85
2022/01/08 01:21:24;;;;;;;;;;;;;;;;;;5073230;28;19916;-85
2022/01/08 01:23:50;;;;;;;;;;;;;;;;;;5073048;28;19924;-84
2022/01/08 01:26:21;;;;;;;;;;;;;;;;;;5073122;28;20486;-85
2022/01/08 01:47:01;;;;;;;;;;;;;;;;;;5096809;28;20390;-81
2022/01/08 01:49:37;;;;;;;;;;;;;;;;;;5096783;28;19916;-84
2022/01/08 01:52:04;;;;;;;;;;;;;;;;;;5096696;28;19916;-84
2022/01/08 01:54:30;;;;;;;;;;;;;;;;;;5096762;28;20466;-86
2022/01/08 01:57:00;;;;;;;;;;;;;;;;;;5096761;28;19920;-84
2022/01/08 01:59:26;;;;;;;;;;;;;;;;;;5095905;28;20016;-82
2022/01/08 02:01:51;;;;;;;;;;;;;;;;;;5096525;28;20278;-85
2022/01/08 02:04:16;;;;;;;;;;;;;;;;;;5096651;28;19999;-86
2022/01/08 02:06:42;;;;;;;;;;;;;;;;;;5078344;28;20437;-82
2022/01/08 02:09:07;;;;;;;;;;;;;;;;;;5096349;28;19983;-87
2022/01/08 02:11:33;;;;;;;;;;;;;;;;;;5096018;28;19942;-82
2022/01/08 02:14:05;;;;;;;;;;;;;;;;;;5078221;28;19920;-85
2022/01/08 02:16:31;;;;;;;;;;;;;;;;;;5096330;28;19923;-84
2022/01/08 02:18:56;;;;;;;;;;;;;;;;;;5095944;28;19916;-84
2022/01/08 02:21:22;;;;;;;;;;;;;;;;;;5096208;28;20412;-85
2022/01/08 02:23:48;;;;;;;;;;;;;;;;;;5096007;28;20410;-84
2022/01/08 02:26:14;;;;;;;;;;;;;;;;;;5096422;28;20256;-84
2022/01/08 02:28:40;;;;;;;;;;;;;;;;;;5077586;28;19917;-87
2022/01/08 02:31:06;;;;;;;;;;;;;;;;;;5096120;28;19923;-83
2022/01/08 02:33:32;;;;;;;;;;;;;;;;;;5095770;28;19915;-83
2022/01/08 02:35:58;;;;;;;;;;;;;;;;;;5095910;28;20035;-81
2022/01/08 02:38:24;;;;;;;;;;;;;;;;;;5077842;28;19973;-82
2022/01/08 02:40:57;;;;;;;;;;;;;;;;;;5095418;28;19916;-81
2022/01/08 02:43:24;;;;;;;;;;;;;;;;;;5095857;28;19916;-83
2022/01/08 02:45:49;;;;;;;;;;;;;;;;;;5095666;28;19923;-83
2022/01/08 02:48:15;;;;;;;;;;;;;;;;;;5095550;28;19920;-81
2022/01/08 02:50:40;;;;;;;;;;;;;;;;;;5077417;28;19923;-80
2022/01/08 02:53:05;;;;;;;;;;;;;;;;;;5095315;28;19922;-85
2022/01/08 02:55:31;;;;;;;;;;;;;;;;;;5095614;28;19923;-86
2022/01/08 02:57:56;;;;;;;;;;;;;;;;;;5095075;28;19934;-82
2022/01/08 03:00:22;;;;;;;;;;;;;;;;;;5094776;28;19990;-81
2022/01/08 03:02:48;;;;;;;;;;;;;;;;;;5095349;28;19920;-86
2022/01/08 03:05:14;;;;;;;;;;;;;;;;;;5095249;28;19919;-81
2022/01/08 03:07:40;;;;;;;;;;;;;;;;;;5094956;28;20002;-82
2022/01/08 03:10:10;;;;;;;;;;;;;;;;;;5095163;28;20060;-85
2022/01/08 03:12:40;;;;;;;;;;;;;;;;;;5094870;28;19916;-80
2022/01/08 03:15:06;;;;;;;;;;;;;;;;;;5095239;28;19916;-84
2022/01/08 03:17:32;;;;;;;;;;;;;;;;;;5095150;28;19917;-82
2022/01/08 03:20:03;;;;;;;;;;;;;;;;;;5094703;28;20015;-81
2022/01/08 03:22:30;;;;;;;;;;;;;;;;;;5095027;28;20385;-82
2022/01/08 03:24:55;;;;;;;;;;;;;;;;;;5095170;28;19927;-84
2022/01/08 03:27:21;;;;;;;;;;;;;;;;;;5095221;28;20336;-82
2022/01/08 03:29:46;;;;;;;;;;;;;;;;;;5094424;28;19916;-83
2022/01/08 03:32:12;;;;;;;;;;;;;;;;;;5094881;28;19924;-81
2022/01/08 03:34:37;;;;;;;;;;;;;;;;;;5075684;28;19923;-86
2022/01/08 03:37:03;;;;;;;;;;;;;;;;;;5094831;28;20341;-85
2022/01/08 03:39:28;;;;;;;;;;;;;;;;;;5094589;28;19969;-85
2022/01/08 03:41:54;;;;;;;;;;;;;;;;;;5094256;28;19920;-80
2022/01/08 03:44:20;;;;;;;;;;;;;;;;;;5094564;28;19962;-86
2022/01/08 03:46:46;;;;;;;;;;;;;;;;;;5094565;28;19916;-85
2022/01/08 03:49:25;;;;;;;;;;;;;;;;;;5094397;28;19968;-86
2022/01/08 03:51:55;;;;;;;;;;;;;;;;;;5094415;28;19916;-86
2022/01/08 03:54:21;;;;;;;;;;;;;;;;;;5094188;28;19912;-85
2022/01/08 03:56:46;;;;;;;;;;;;;;;;;;5094457;28;19916;-85
2022/01/08 03:59:12;;;;;;;;;;;;;;;;;;5094429;28;20261;-84
2022/01/08 04:01:37;;;;;;;;;;;;;;;;;;5093798;28;19916;-85
2022/01/08 04:04:03;;;;;;;;;;;;;;;;;;5094335;28;19916;-82
2022/01/08 04:06:28;;;;;;;;;;;;;;;;;;5094143;28;19923;-84
2022/01/08 04:08:57;;;;;;;;;;;;;;;;;;5093120;28;19916;-82
2022/01/08 04:11:24;;;;;;;;;;;;;;;;;;5094144;28;19916;-81
2022/01/08 04:13:49;;;;;;;;;;;;;;;;;;5093785;28;19916;-85
2022/01/08 04:16:19;;;;;;;;;;;;;;;;;;5075747;28;20334;-86
2022/01/08 04:18:45;;;;;;;;;;;;;;;;;;5094140;28;19930;-83
2022/01/08 04:23:38;;;;;;;;;;;;;;;;;;5093867;28;19916;-85
2022/01/08 04:26:04;;;;;;;;;;;;;;;;;;5093811;28;20299;-84
2022/01/08 04:28:29;;;;;;;;;;;;;;;;;;5093983;28;19923;-86
2022/01/08 04:30:55;;;;;;;;;;;;;;;;;;5093560;28;19920;-85
2022/01/08 04:33:20;;;;;;;;;;;;;;;;;;5093821;28;20002;-81
2022/01/08 04:35:45;;;;;;;;;;;;;;;;;;5093471;28;19924;-81
2022/01/08 04:38:12;;;;;;;;;;;;;;;;;;5093901;28;19916;-80
2022/01/08 04:40:37;;;;;;;;;;;;;;;;;;5093599;28;19923;-83
2022/01/08 04:43:03;;;;;;;;;;;;;;;;;;5093820;28;19916;-82
2022/01/08 04:45:29;;;;;;;;;;;;;;;;;;5093697;28;20356;-82
2022/01/08 04:47:56;;;;;;;;;;;;;;;;;;5093178;28;19940;-82
2022/01/08 04:50:21;;;;;;;;;;;;;;;;;;5093465;28;20312;-84
2022/01/08 04:52:46;;;;;;;;;;;;;;;;;;5093676;28;19919;-81
2022/01/08 04:55:12;;;;;;;;;;;;;;;;;;5093330;28;20015;-86
2022/01/08 04:57:37;;;;;;;;;;;;;;;;;;5093575;28;19917;-85
2022/01/08 05:00:03;;;;;;;;;;;;;;;;;;5093368;28;19972;-85
2022/01/08 05:02:29;;;;;;;;;;;;;;;;;;5092929;28;20450;-85
2022/01/08 05:04:54;;;;;;;;;;;;;;;;;;5093520;28;19955;-86
2022/01/08 05:07:20;;;;;;;;;;;;;;;;;;5093435;28;20268;-84
2022/01/08 05:09:45;;;;;;;;;;;;;;;;;;5093331;28;19916;-84
2022/01/08 05:12:11;;;;;;;;;;;;;;;;;;5093560;28;19959;-85
2022/01/08 05:14:36;;;;;;;;;;;;;;;;;;5093138;28;20351;-84
2022/01/08 05:17:02;;;;;;;;;;;;;;;;;;5093516;28;20316;-85
2022/01/08 05:19:43;;;;;;;;;;;;;;;;;;5094416;28;19916;-86
2022/01/08 05:22:10;;;;;;;;;;;;;;;;;;5096846;28;19916;-86
2022/01/08 05:24:35;;;;;;;;;;;;;;;;;;5097337;28;20010;-84
2022/01/08 05:27:03;;;;;;;;;;;;;;;;;;5097193;28;19974;-86
2022/01/08 05:29:29;;;;;;;;;;;;;;;;;;5097358;28;20325;-84
2022/01/08 05:31:54;;;;;;;;;;;;;;;;;;5096942;28;19966;-86
2022/01/08 05:34:20;;;;;;;;;;;;;;;;;;5096822;28;19919;-86
2022/01/08 05:36:45;;;;;;;;;;;;;;;;;;5097076;28;20014;-81
2022/01/08 05:39:11;;;;;;;;;;;;;;;;;;5097132;28;19927;-85
2022/01/08 05:41:36;;;;;;;;;;;;;;;;;;5096554;28;19916;-83
2022/01/08 05:44:01;;;;;;;;;;;;;;;;;;5096897;28;20364;-86
2022/01/08 05:46:27;;;;;;;;;;;;;;;;;;5096777;28;19916;-85
2022/01/08 05:48:52;;;;;;;;;;;;;;;;;;5096642;28;19916;-83
2022/01/08 05:51:18;;;;;;;;;;;;;;;;;;5096479;28;19955;-86
2022/01/08 05:53:43;;;;;;;;;;;;;;;;;;5096718;28;19969;-85
2022/01/08 05:56:09;;;;;;;;;;;;;;;;;;5096375;28;19931;-85
2022/01/08 05:58:34;;;;;;;;;;;;;;;;;;5096558;28;19943;-85
2022/01/08 06:00:59;;;;;;;;;;;;;;;;;;5096307;28;20429;-86
2022/01/08 06:03:25;;;;;;;;;;;;;;;;;;5096442;28;19965;-85
2022/01/08 06:05:51;;;;;;;;;;;;;;;;;;5096410;28;19969;-85
2022/01/08 06:08:17;;;;;;;;;;;;;;;;;;5096525;28;19919;-84
2022/01/08 06:10:42;;;;;;;;;;;;;;;;;;5096320;28;20283;-87
2022/01/08 06:13:07;;;;;;;;;;;;;;;;;;5096347;28;19919;-81
2022/01/08 06:15:33;;;;;;;;;;;;;;;;;;5096038;28;19947;-82
2022/01/08 06:17:58;;;;;;;;;;;;;;;;;;5096301;28;20375;-84
2022/01/08 06:20:24;;;;;;;;;;;;;;;;;;5096477;28;19919;-85
2022/01/08 06:22:49;;;;;;;;;;;;;;;;;;5095201;28;20339;-86
2022/01/08 06:25:15;;;;;;;;;;;;;;;;;;5095610;28;20382;-85
2022/01/08 06:27:40;;;;;;;;;;;;;;;;;;5095919;28;19923;-82
2022/01/08 06:30:06;;;;;;;;;;;;;;;;;;5095903;28;20275;-83
2022/01/08 06:32:31;;;;;;;;;;;;;;;;;;5076766;28;19916;-84
2022/01/08 06:34:57;;;;;;;;;;;;;;;;;;5095747;28;19916;-83
2022/01/08 06:37:22;;;;;;;;;;;;;;;;;;5077858;28;19916;-83
2022/01/08 06:39:49;;;;;;;;;;;;;;;;;;5095884;28;19923;-80
2022/01/08 06:42:14;;;;;;;;;;;;;;;;;;5094242;28;19965;-84
2022/01/08 06:44:40;;;;;;;;;;;;;;;;;;5095381;28;19928;-84
2022/01/08 06:47:05;;;;;;;;;;;;;;;;;;5092364;28;19943;-84
2022/01/08 06:49:31;;;;;;;;;;;;;;;;;;5095622;28;20414;-84
2022/01/08 06:51:57;;;;;;;;;;;;;;;;;;5077070;28;19920;-82
2022/01/08 06:54:22;;;;;;;;;;;;;;;;;;5095708;28;19917;-84
2022/01/08 06:56:47;;;;;;;;;;;;;;;;;;5095305;28;19917;-79
2022/01/08 06:59:13;;;;;;;;;;;;;;;;;;5093338;28;19920;-84
2022/01/08 07:01:38;;;;;;;;;;;;;;;;;;5094572;28;19927;-84
2022/01/08 07:04:04;;;;;;;;;;;;;;;;;;5095200;28;20037;-84
2022/01/08 07:06:29;;;;;;;;;;;;;;;;;;5095094;28;19923;-83
2022/01/08 07:08:55;;;;;;;;;;;;;;;;;;5095321;28;19923;-84
2022/01/08 07:11:21;;;;;;;;;;;;;;;;;;5076983;28;19916;-80
2022/01/08 07:13:46;;;;;;;;;;;;;;;;;;5095130;28;19979;-80
2022/01/08 07:16:11;;;;;;;;;;;;;;;;;;5093775;28;19920;-84
2022/01/08 07:18:37;;;;;;;;;;;;;;;;;;5095070;28;19916;-83
2022/01/08 07:21:02;;;;;;;;;;;;;;;;;;5095122;28;19916;-84
2022/01/08 07:23:28;;;;;;;;;;;;;;;;;;5094506;28;19916;-83
2022/01/08 07:25:53;;;;;;;;;;;;;;;;;;5094214;28;19923;-84
2022/01/08 07:28:18;;;;;;;;;;;;;;;;;;5094825;28;19912;-85
2022/01/08 07:30:45;;;;;;;;;;;;;;;;;;5076626;28;19923;-84
2022/01/08 07:33:11;;;;;;;;;;;;;;;;;;5094855;28;20321;-83
2022/01/08 07:35:37;;;;;;;;;;;;;;;;;;5094574;28;19912;-82
2022/01/08 07:38:02;;;;;;;;;;;;;;;;;;5093466;28;20379;-82
2022/01/08 07:40:27;;;;;;;;;;;;;;;;;;5095204;28;19919;-80
2022/01/08 07:42:53;;;;;;;;;;;;;;;;;;5094105;28;19923;-79
2022/01/08 07:45:18;;;;;;;;;;;;;;;;;;5094334;28;19923;-82
2022/01/08 07:47:44;;;;;;;;;;;;;;;;;;5093245;28;19927;-84
2022/01/08 07:50:10;;;;;;;;;;;;;;;;;;5093047;28;19994;-83
2022/01/08 07:52:36;;;;;;;;;;;;;;;;;;5092787;28;19938;-84
2022/01/08 07:55:01;;;;;;;;;;;;;;;;;;5094141;28;20013;-80
2022/01/08 07:57:26;;;;;;;;;;;;;;;;;;5094052;28;19916;-83
2022/01/08 07:59:52;;;;;;;;;;;;;;;;;;5092139;28;19924;-82
2022/01/08 08:02:18;;;;;;;;;;;;;;;;;;5083657;28;19974;-84
2022/01/08 08:04:43;;;;;;;;;;;;;;;;;;5085987;28;19934;-85
2022/01/08 08:07:08;;;;;;;;;;;;;;;;;;5068929;28;20413;-84
2022/01/08 08:09:34;;;;;;;;;;;;;;;;;;5084380;28;19973;-89
2022/01/08 08:11:59;;;;;;;;;;;;;;;;;;5086388;28;19920;-88
2022/01/08 08:14:25;;;;;;;;;;;;;;;;;;5085777;28;19934;-86
2022/01/08 08:16:50;;;;;;;;;;;;;;;;;;5083499;28;19973;-87
2022/01/08 08:19:16;;;;;;;;;;;;;;;;;;5086322;28;19970;-86
2022/01/08 08:21:41;;;;;;;;;;;;;;;;;;5089480;28;20696;-85
2022/01/08 08:24:07;;;;;;;;;;;;;;;;;;5086488;28;19920;-88
2022/01/08 08:26:33;;;;;;;;;;;;;;;;;;5091798;28;20838;-86
2022/01/08 08:28:58;;;;;;;;;;;;;;;;;;5092464;28;19924;-82
2022/01/08 08:31:24;;;;;;;;;;;;;;;;;;5070774;28;20452;-85
2022/01/08 08:33:49;;;;;;;;;;;;;;;;;;5092249;28;19970;-84
2022/01/08 08:36:15;;;;;;;;;;;;;;;;;;5091193;28;19924;-82
2022/01/08 08:38:40;;;;;;;;;;;;;;;;;;5092436;28;19969;-85
2022/01/08 08:41:06;;;;;;;;;;;;;;;;;;5092381;28;19972;-83
2022/01/08 08:43:31;;;;;;;;;;;;;;;;;;5092650;28;19916;-81
2022/01/08 08:45:56;;;;;;;;;;;;;;;;;;5091903;28;20069;-82
2022/01/08 08:48:22;;;;;;;;;;;;;;;;;;5088162;28;20277;-81
2022/01/08 08:50:47;;;;;;;;;;;;;;;;;;5078109;28;19924;-84
2022/01/08 08:53:13;;;;;;;;;;;;;;;;;;5080100;28;19930;-85
2022/01/08 08:55:38;;;;;;;;;;;;;;;;;;5080619;28;19921;-86
2022/01/08 08:58:04;;;;;;;;;;;;;;;;;;5084741;28;20387;-84
2022/01/08 09:00:29;;;;;;;;;;;;;;;;;;5084226;28;20281;-82
2022/01/08 09:02:55;;;;;;;;;;;;;;;;;;5084444;28;20358;-88
2022/01/08 09:05:20;;;;;;;;;;;;;;;;;;5080586;28;19924;-87
2022/01/08 09:07:46;;;;;;;;;;;;;;;;;;5084254;28;19924;-84
2022/01/08 09:10:12;;;;;;;;;;;;;;;;;;5084203;28;19962;-85
2022/01/08 09:12:38;;;;;;;;;;;;;;;;;;5079512;28;20331;-85
2022/01/08 09:15:05;;;;;;;;;;;;;;;;;;5083314;28;19920;-84
2022/01/08 09:17:31;;;;;;;;;;;;;;;;;;5084264;28;19920;-86
2022/01/08 09:19:56;;;;;;;;;;;;;;;;;;5094990;28;20334;-85
2022/01/08 09:22:22;;;;;;;;;;;;;;;;;;5097162;28;19916;-85
2022/01/08 09:24:47;;;;;;;;;;;;;;;;;;5084989;28;21824;-86
2022/01/08 09:27:13;;;;;;;;;;;;;;;;;;5087967;28;19982;-85
2022/01/08 09:29:38;;;;;;;;;;;;;;;;;;5084308;28;19923;-82
2022/01/08 09:32:05;;;;;;;;;;;;;;;;;;5093109;28;19924;-83
2022/01/08 09:34:31;;;;;;;;;;;;;;;;;;5096515;28;20371;-82
2022/01/08 09:36:58;;;;;;;;;;;;;;;;;;5076197;28;19927;-84
2022/01/08 09:39:24;;;;;;;;;;;;;;;;;;5096945;28;19916;-84
2022/01/08 09:41:49;;;;;;;;;;;;;;;;;;5093257;28;20933;-83
2022/01/08 09:44:15;;;;;;;;;;;;;;;;;;5078563;28;19927;-85
2022/01/08 09:46:40;;;;;;;;;;;;;;;;;;5089431;28;20041;-84
2022/01/08 09:49:06;;;;;;;;;;;;;;;;;;5089955;28;19932;-85
2022/01/08 09:51:31;;;;;;;;;;;;;;;;;;5090453;28;19924;-85
2022/01/08 09:53:56;;;;;;;;;;;;;;;;;;5089851;28;20279;-85
2022/01/08 09:56:23;;;;;;;;;;;;;;;;;;5095899;28;20014;-85
2022/01/08 09:58:48;;;;;;;;;;;;;;;;;;5078049;28;19920;-85
2022/01/08 10:01:27;;;;;;;;;;;;;;;;;;5097044;28;19916;-86
2022/01/08 10:03:53;;;;;;;;;;;;;;;;;;5096686;28;19930;-83
2022/01/08 10:06:23;;;;;;;;;;;;;;;;;;5095572;28;20233;-85
2022/01/08 10:08:49;;;;;;;;;;;;;;;;;;5092937;28;19942;-83
2022/01/08 10:11:14;;;;;;;;;;;;;;;;;;5095058;28;19920;-83
2022/01/08 10:13:41;;;;;;;;;;;;;;;;;;5096809;28;19916;-85
2022/01/08 10:18:54;;;;;;;;;;;;;;;;;;5093936;28;20406;-86
2022/01/08 10:21:21;;;;;;;;;;;;;;;;;;5089929;28;19920;-86
2022/01/08 10:23:49;;;;;;;;;;;;;;;;;;5087858;28;20372;-86
2022/01/08 10:26:16;;;;;;;;;;;;;;;;;;5089201;28;20306;-86
2022/01/08 10:28:49;;;;;;;;;;;;;;;;;;5092724;28;20313;-82
2022/01/08 10:31:21;;;;;;;;;;;;;;;;;;5088047;28;19994;-84
2022/01/08 10:34:10;;;;;;;;;;;;;;;;;;5087771;28;19981;-83
2022/01/08 10:36:39;;;;;;;;;;;;;;;;;;5076849;28;19923;-85
2022/01/08 10:39:12;;;;;;;;;;;;;;;;;;5084611;28;19924;-82
2022/01/08 10:41:38;;;;;;;;;;;;;;;;;;5091506;28;20448;-84
2022/01/08 10:44:09;;;;;;;;;;;;;;;;;;5090534;28;20012;-87
2022/01/08 10:46:35;;;;;;;;;;;;;;;;;;5091890;28;19920;-87
2022/01/08 10:49:01;;;;;;;;;;;;;;;;;;5089730;28;19924;-86
2022/01/08 10:51:32;;;;;;;;;;;;;;;;;;5095144;28;20398;-84
2022/01/08 10:54:09;;;;;;;;;;;;;;;;;;5089903;28;20469;-83
2022/01/08 10:56:36;;;;;;;;;;;;;;;;;;5077345;28;19920;-82
2022/01/08 10:59:04;;;;;;;;;;;;;;;;;;5090067;28;19927;-86
2022/01/08 11:01:36;;;;;;;;;;;;;;;;;;5090931;28;19965;-82
2022/01/08 11:04:02;;;;;;;;;;;;;;;;;;5091037;28;20426;-85
2022/01/08 11:06:27;;;;;;;;;;;;;;;;;;5095044;28;19916;-83
2022/01/08 11:09:03;;;;;;;;;;;;;;;;;;5090356;28;20343;-84
2022/01/08 11:11:31;;;;;;;;;;;;;;;;;;5087914;28;19927;-84
2022/01/08 11:14:04;;;;;;;;;;;;;;;;;;5092774;28;19920;-88
2022/01/08 11:16:30;;;;;;;;;;;;;;;;;;5090133;28;19920;-83
2022/01/08 11:18:55;;;;;;;;;;;;;;;;;;5090455;28;19978;-83
2022/01/08 11:21:21;;;;;;;;;;;;;;;;;;5086439;28;20350;-83
2022/01/08 11:23:47;;;;;;;;;;;;;;;;;;5087771;28;20010;-83
2022/01/08 11:26:13;;;;;;;;;;;;;;;;;;5089871;28;20284;-85
2022/01/08 11:28:43;;;;;;;;;;;;;;;;;;5090269;28;19947;-82
2022/01/08 11:31:11;;;;;;;;;;;;;;;;;;5087714;28;20352;-82
2022/01/08 11:33:42;;;;;;;;;;;;;;;;;;5089252;28;19957;-84
2022/01/08 11:36:08;;;;;;;;;;;;;;;;;;5088070;28;19920;-84
2022/01/08 11:38:33;;;;;;;;;;;;;;;;;;5088246;28;19930;-82
2022/01/08 11:40:59;;;;;;;;;;;;;;;;;;5087435;28;20326;-88
2022/01/08 11:43:26;;;;;;;;;;;;;;;;;;5074377;28;20014;-89
2022/01/08 11:45:53;;;;;;;;;;;;;;;;;;5073965;28;19997;-89
2022/01/08 11:48:21;;;;;;;;;;;;;;;;;;5089281;28;19920;-82
2022/01/08 11:50:57;;;;;;;;;;;;;;;;;;5088157;28;20017;-82
2022/01/08 11:53:24;;;;;;;;;;;;;;;;;;5087822;28;20287;-83
2022/01/08 11:55:53;;;;;;;;;;;;;;;;;;5088418;28;19947;-86
2022/01/08 11:58:20;;;;;;;;;;;;;;;;;;5088265;28;19924;-83
2022/01/08 12:01:06;;;;;;;;;;;;;;;;;;5086249;28;20330;-86
2022/01/08 12:03:31;;;;;;;;;;;;;;;;;;5090282;28;19922;-88
2022/01/08 12:05:58;;;;;;;;;;;;;;;;;;5088257;28;19935;-84
2022/01/08 12:08:52;;;;;;;;;;;;;;;;;;5090133;28;20007;-83
2022/01/08 12:11:18;;;;;;;;;;;;;;;;;;5075495;28;20434;-85
2022/01/08 12:13:44;;;;;;;;;;;;;;;;;;5086986;28;20015;-84
2022/01/08 12:16:28;;;;;;;;;;;;;;;;;;5088934;28;19927;-89
2022/01/08 12:18:53;;;;;;;;;;;;;;;;;;5085249;28;20006;-85
2022/01/08 12:21:32;;;;;;;;;;;;;;;;;;5088392;28;20916;-82
2022/01/08 12:24:00;;;;;;;;;;;;;;;;;;5088128;28;20275;-82
2022/01/08 12:26:26;;;;;;;;;;;;;;;;;;5093756;28;19920;-83
2022/01/08 12:28:53;;;;;;;;;;;;;;;;;;5092989;28;19930;-82
2022/01/08 12:31:37;;;;;;;;;;;;;;;;;;5092317;28;19920;-83
2022/01/08 12:34:18;;;;;;;;;;;;;;;;;;5091147;28;20006;-86
2022/01/08 12:36:50;;;;;;;;;;;;;;;;;;5077178;28;20861;-83
2022/01/08 12:39:16;;;;;;;;;;;;;;;;;;5064102;28;19924;-82
2022/01/08 12:41:41;;;;;;;;;;;;;;;;;;5073605;28;20379;-84
2022/01/08 12:44:26;;;;;;;;;;;;;;;;;;5092916;28;19917;-83
2022/01/08 12:46:51;;;;;;;;;;;;;;;;;;5079874;28;19982;-83
2022/01/08 12:49:17;;;;;;;;;;;;;;;;;;5078430;28;19942;-86
2022/01/08 12:51:42;;;;;;;;;;;;;;;;;;5092644;28;19920;-81
2022/01/08 12:54:08;;;;;;;;;;;;;;;;;;5092031;28;19999;-81
2022/01/08 12:56:33;;;;;;;;;;;;;;;;;;5088950;28;19920;-81
2022/01/08 12:59:01;;;;;;;;;;;;;;;;;;5088908;28;19920;-80
2022/01/08 13:01:28;;;;;;;;;;;;;;;;;;5093588;28;19916;-89
2022/01/08 13:03:57;;;;;;;;;;;;;;;;;;5092004;28;20391;-81
2022/01/08 13:06:24;;;;;;;;;;;;;;;;;;5091878;28;19955;-89
2022/01/08 13:08:50;;;;;;;;;;;;;;;;;;5073213;28;19999;-82
2022/01/08 13:11:18;;;;;;;;;;;;;;;;;;5085942;28;20342;-83
2022/01/08 13:13:45;;;;;;;;;;;;;;;;;;5092079;28;19924;-83
2022/01/08 13:16:12;;;;;;;;;;;;;;;;;;5090020;28;19924;-83
2022/01/08 13:18:38;;;;;;;;;;;;;;;;;;5077279;28;19956;-83
2022/01/08 13:21:04;;;;;;;;;;;;;;;;;;5077339;28;20330;-84
2022/01/08 13:23:30;;;;;;;;;;;;;;;;;;5076308;28;19931;-84
2022/01/08 13:25:56;;;;;;;;;;;;;;;;;;5076794;28;19924;-82
2022/01/08 13:28:22;;;;;;;;;;;;;;;;;;5077977;28;19923;-82
2022/01/08 13:30:48;;;;;;;;;;;;;;;;;;5077077;28;20007;-82
2022/01/08 13:33:21;;;;;;;;;;;;;;;;;;5080797;28;19935;-81
2022/01/08 13:35:46;;;;;;;;;;;;;;;;;;5086379;28;19916;-84
2022/01/08 13:38:26;;;;;;;;;;;;;;;;;;5087919;28;19927;-83
2022/01/08 13:40:51;;;;;;;;;;;;;;;;;;5083745;28;20558;-82
2022/01/08 13:43:17;;;;;;;;;;;;;;;;;;5091036;28;19927;-82
2022/01/08 13:45:51;;;;;;;;;;;;;;;;;;5094547;28;19924;-83
2022/01/08 13:48:18;;;;;;;;;;;;;;;;;;5076848;28;20284;-82
2022/01/08 13:50:48;;;;;;;;;;;;;;;;;;5095201;28;19916;-82
2022/01/08 13:53:15;;;;;;;;;;;;;;;;;;5093565;28;20085;-82
2022/01/08 13:55:43;;;;;;;;;;;;;;;;;;5095355;28;19917;-84
2022/01/08 13:58:10;;;;;;;;;;;;;;;;;;5080480;28;20379;-83
2022/01/08 14:00:40;;;;;;;;;;;;;;;;;;5087069;28;19928;-83
2022/01/08 14:03:23;;;;;;;;;;;;;;;;;;5090619;28;20007;-84
2022/01/08 14:05:50;;;;;;;;;;;;;;;;;;5090255;28;19924;-84
2022/01/08 14:08:15;;;;;;;;;;;;;;;;;;5091560;28;20367;-83
2022/01/08 14:10:42;;;;;;;;;;;;;;;;;;5091570;28;19935;-82
2022/01/08 14:13:10;;;;;;;;;;;;;;;;;;5091084;28;19979;-83
2022/01/08 14:15:36;;;;;;;;;;;;;;;;;;5083105;28;19920;-83
2022/01/08 14:18:08;;;;;;;;;;;;;;;;;;5085813;28;19920;-83
2022/01/08 14:20:33;;;;;;;;;;;;;;;;;;5080197;28;19928;-83
2022/01/08 14:23:08;;;;;;;;;;;;;;;;;;5080535;28;19920;-83
2022/01/08 14:25:34;;;;;;;;;;;;;;;;;;5089742;28;20379;-83
2022/01/08 14:28:13;;;;;;;;;;;;;;;;;;5092336;28;19931;-82
2022/01/08 14:30:38;;;;;;;;;;;;;;;;;;5090836;28;20299;-83
2022/01/08 14:33:04;;;;;;;;;;;;;;;;;;5074863;28;19920;-82
2022/01/08 14:35:29;;;;;;;;;;;;;;;;;;5090190;28;19928;-85
2022/01/08 14:38:00;;;;;;;;;;;;;;;;;;5086497;28;19928;-85
2022/01/08 14:40:28;;;;;;;;;;;;;;;;;;5085475;28;20052;-85
2022/01/08 14:42:58;;;;;;;;;;;;;;;;;;5083263;28;19924;-85
2022/01/08 14:45:24;;;;;;;;;;;;;;;;;;5081723;28;19925;-85
2022/01/08 14:47:49;;;;;;;;;;;;;;;;;;5086216;28;20260;-83
2022/01/08 14:50:16;;;;;;;;;;;;;;;;;;5083609;28;20073;-83
2022/01/08 14:52:42;;;;;;;;;;;;;;;;;;5089231;28;20409;-84
2022/01/08 14:55:09;;;;;;;;;;;;;;;;;;5087561;28;20003;-82
2022/01/08 14:57:34;;;;;;;;;;;;;;;;;;5084257;28;19931;-83
2022/01/08 15:00:00;;;;;;;;;;;;;;;;;;5082774;28;19940;-83
2022/01/08 15:02:26;;;;;;;;;;;;;;;;;;5087114;28;19924;-82
2022/01/08 15:04:51;;;;;;;;;;;;;;;;;;5092641;28;19935;-82
2022/01/08 15:07:17;;;;;;;;;;;;;;;;;;5093685;28;19916;-84
2022/01/08 15:09:42;;;;;;;;;;;;;;;;;;5093744;28;19922;-83
2022/01/08 15:12:08;;;;;;;;;;;;;;;;;;5092776;28;19966;-83
2022/01/08 15:14:34;;;;;;;;;;;;;;;;;;5092661;28;19923;-83
2022/01/08 15:17:00;;;;;;;;;;;;;;;;;;5093530;28;19920;-81
2022/01/08 15:19:26;;;;;;;;;;;;;;;;;;5091202;28;19924;-82
2022/01/08 15:21:52;;;;;;;;;;;;;;;;;;5092961;28;19920;-83
2022/01/08 15:24:17;;;;;;;;;;;;;;;;;;5093588;28;19916;-86
2022/01/08 15:26:42;;;;;;;;;;;;;;;;;;5094218;28;19955;-82
2022/01/08 15:29:08;;;;;;;;;;;;;;;;;;5093093;28;20003;-84
2022/01/08 15:31:34;;;;;;;;;;;;;;;;;;5083074;28;20342;-82
2022/01/08 15:33:59;;;;;;;;;;;;;;;;;;5087947;28;19931;-82
2022/01/08 15:36:25;;;;;;;;;;;;;;;;;;5093606;28;19920;-82
2022/01/08 15:38:50;;;;;;;;;;;;;;;;;;5092877;28;19928;-81
2022/01/08 15:41:16;;;;;;;;;;;;;;;;;;5093628;28;19927;-81
2022/01/08 15:43:41;;;;;;;;;;;;;;;;;;5093113;28;19920;-84
2022/01/08 15:46:07;;;;;;;;;;;;;;;;;;5093323;28;20023;-85
2022/01/08 15:48:32;;;;;;;;;;;;;;;;;;5093319;28;19912;-83
2022/01/08 15:50:59;;;;;;;;;;;;;;;;;;5094148;28;19917;-82
2022/01/08 15:53:25;;;;;;;;;;;;;;;;;;5093294;28;20354;-82
2022/01/08 15:55:50;;;;;;;;;;;;;;;;;;5092720;28;19912;-83
2022/01/08 15:58:16;;;;;;;;;;;;;;;;;;5086142;28;20381;-83
2022/01/08 16:00:41;;;;;;;;;;;;;;;;;;5077009;28;19952;-84
2022/01/08 16:03:07;;;;;;;;;;;;;;;;;;5075427;28;20317;-83
2022/01/08 16:05:33;;;;;;;;;;;;;;;;;;5081155;28;19920;-83
2022/01/08 16:08:02;;;;;;;;;;;;;;;;;;5081256;28;19920;-85
2022/01/08 16:10:28;;;;;;;;;;;;;;;;;;5086300;28;19920;-86
2022/01/08 16:12:53;;;;;;;;;;;;;;;;;;5072780;28;19943;-86
2022/01/08 16:15:20;;;;;;;;;;;;;;;;;;5069291;28;20066;-87
2022/01/08 16:17:45;;;;;;;;;;;;;;;;;;5069059;28;20162;-86
2022/01/08 16:20:13;;;;;;;;;;;;;;;;;;5069196;28;19930;-86
2022/01/08 16:22:39;;;;;;;;;;;;;;;;;;5071436;28;19924;-87
2022/01/08 16:25:04;;;;;;;;;;;;;;;;;;5071064;28;20604;-87
2022/01/08 16:27:30;;;;;;;;;;;;;;;;;;5054297;28;19924;-85
2022/01/08 16:29:55;;;;;;;;;;;;;;;;;;5071689;28;20316;-86
2022/01/08 16:32:21;;;;;;;;;;;;;;;;;;5069869;28;20072;-86
2022/01/08 16:34:46;;;;;;;;;;;;;;;;;;5068919;28;19921;-87
2022/01/08 16:37:12;;;;;;;;;;;;;;;;;;5068466;28;19967;-84
2022/01/08 16:39:37;;;;;;;;;;;;;;;;;;5070395;28;19921;-83
2022/01/08 16:42:03;;;;;;;;;;;;;;;;;;5066198;28;19924;-83
2022/01/08 16:44:29;;;;;;;;;;;;;;;;;;5080171;28;19968;-84
2022/01/08 16:46:55;;;;;;;;;;;;;;;;;;5071871;28;19924;-82
2022/01/08 16:49:20;;;;;;;;;;;;;;;;;;5070531;28;19932;-84
2022/01/08 16:51:46;;;;;;;;;;;;;;;;;;5070182;28;19928;-84
2022/01/08 16:54:12;;;;;;;;;;;;;;;;;;5069116;28;20396;-85
2022/01/08 16:56:37;;;;;;;;;;;;;;;;;;5066319;28;20410;-84
2022/01/08 16:59:03;;;;;;;;;;;;;;;;;;5065477;28;19924;-85
2022/01/08 17:01:30;;;;;;;;;;;;;;;;;;5065166;28;19932;-85
2022/01/08 17:03:55;;;;;;;;;;;;;;;;;;5066827;28;19969;-85
2022/01/08 17:06:21;;;;;;;;;;;;;;;;;;5065874;28;19921;-84